sensor_id;sensor_type;location;lat;lon;timestamp;pressure;altitude;pressure_sealevel;temperature;humidity
70758;BME280;59316;52.964;7.102;2022-09-27T00:01:22;99364.91;;;8.74;100.00
70758;BME280;59316;52.964;7.102;2022-09-27T00:06:26;99370.78;;;8.66;100.00
70758;BME280;59316;52.964;7.102;2022-09-27T00:11:35;99372.50;;;8.56;100.00
70758;BME280;59316;52.964;7.102;2022-09-27T00:16:39;99367.56;;;8.53;100.00
70758;BME280;59316;52.964;7.102;2022-09-27T00:21:43;99380.66;;;8.42;100.00
70758;BME280;59316;52.964;7.102;2022-09-27T00:26:46;99369.97;;;8.33;100.00
70758;BME280;59316;52.964;7.102;2022-09-27T00:31:48;99374.44;;;8.22;100.00
70758;BME280;59316;52.964;7.102;2022-09-27T00:36:51;99371.09;;;8.19;100.00
70758;BME280;59316;52.964;7.102;2022-09-27T00:41:54;99369.16;;;8.00;100.00
70758;BME280;59316;52.964;7.102;2022-09-27T00:47:03;99374.66;;;7.86;100.00
70758;BME280;59316;52.964;7.102;2022-09-27T00:52:19;99372.69;;;7.67;100.00
70758;BME280;59316;52.964;7.102;2022-09-27T00:57:22;99376.41;;;7.53;100.00
70758;BME280;59316;52.964;7.102;2022-09-27T01:02:24;99373.78;;;7.42;100.00
70758;BME280;59316;52.964;7.102;2022-09-27T01:07:27;99374.41;;;7.34;100.00
70758;BME280;59316;52.964;7.102;2022-09-27T01:12:41;99382.59;;;7.29;100.00
70758;BME280;59316;52.964;7.102;2022-09-27T01:18:00;99385.09;;;7.31;100.00
70758;BME280;59316;52.964;7.102;2022-09-27T01:23:33;99387.81;;;7.29;100.00
70758;BME280;59316;52.964;7.102;2022-09-27T01:39:35;99376.91;;;7.47;100.00
70758;BME280;59316;52.964;7.102;2022-09-27T01:45:18;99379.25;;;7.50;100.00
70758;BME280;59316;52.964;7.102;2022-09-27T01:50:45;99388.50;;;7.54;100.00
70758;BME280;59316;52.964;7.102;2022-09-27T01:55:52;99375.09;;;7.59;100.00
70758;BME280;59316;52.964;7.102;2022-09-27T02:01:20;99381.00;;;7.72;100.00
70758;BME280;59316;52.964;7.102;2022-09-27T02:06:30;99383.13;;;7.78;100.00
70758;BME280;59316;52.964;7.102;2022-09-27T02:11:53;99385.84;;;7.88;100.00
70758;BME280;59316;52.964;7.102;2022-09-27T02:17:22;99389.22;;;8.00;100.00
70758;BME280;59316;52.964;7.102;2022-09-27T02:22:37;99376.63;;;8.05;100.00
70758;BME280;59316;52.964;7.102;2022-09-27T02:33:30;99386.94;;;7.74;100.00
70758;BME280;59316;52.964;7.102;2022-09-27T02:38:35;99389.81;;;7.60;100.00
70758;BME280;59316;52.964;7.102;2022-09-27T02:43:38;99376.03;;;7.69;100.00
70758;BME280;59316;52.964;7.102;2022-09-27T02:48:53;99387.88;;;7.62;100.00
70758;BME280;59316;52.964;7.102;2022-09-27T02:54:20;99385.06;;;7.65;100.00
70758;BME280;59316;52.964;7.102;2022-09-27T03:00:05;99389.88;;;7.81;100.00
70758;BME280;59316;52.964;7.102;2022-09-27T03:05:24;99387.13;;;7.82;100.00
70758;BME280;59316;52.964;7.102;2022-09-27T03:10:28;99383.00;;;7.80;100.00
70758;BME280;59316;52.964;7.102;2022-09-27T03:15:31;99382.41;;;7.76;100.00
70758;BME280;59316;52.964;7.102;2022-09-27T03:20:36;99373.75;;;7.76;100.00
70758;BME280;59316;52.964;7.102;2022-09-27T03:25:43;99379.13;;;7.63;100.00
70758;BME280;59316;52.964;7.102;2022-09-27T03:30:46;99373.31;;;7.59;100.00
70758;BME280;59316;52.964;7.102;2022-09-27T03:36:08;99370.69;;;7.48;100.00
70758;BME280;59316;52.964;7.102;2022-09-27T03:41:11;99391.81;;;7.56;100.00
70758;BME280;59316;52.964;7.102;2022-09-27T03:46:13;99391.97;;;7.54;100.00
70758;BME280;59316;52.964;7.102;2022-09-27T03:51:16;99381.25;;;7.69;100.00
70758;BME280;59316;52.964;7.102;2022-09-27T03:56:18;99372.00;;;7.65;100.00
70758;BME280;59316;52.964;7.102;2022-09-27T04:01:21;99364.63;;;7.70;100.00
70758;BME280;59316;52.964;7.102;2022-09-27T04:06:28;99368.19;;;7.69;100.00
70758;BME280;59316;52.964;7.102;2022-09-27T04:11:30;99373.53;;;7.67;100.00
70758;BME280;59316;52.964;7.102;2022-09-27T04:16:33;99370.22;;;7.65;100.00
70758;BME280;59316;52.964;7.102;2022-09-27T04:22:01;99370.69;;;7.59;100.00
70758;BME280;59316;52.964;7.102;2022-09-27T04:27:04;99370.69;;;7.48;100.00
70758;BME280;59316;52.964;7.102;2022-09-27T04:32:06;99372.84;;;7.43;100.00
70758;BME280;59316;52.964;7.102;2022-09-27T04:37:28;99375.13;;;7.36;100.00
70758;BME280;59316;52.964;7.102;2022-09-27T04:42:36;99377.38;;;7.18;100.00
70758;BME280;59316;52.964;7.102;2022-09-27T04:47:45;99386.03;;;6.96;100.00
70758;BME280;59316;52.964;7.102;2022-09-27T04:52:52;99403.06;;;6.88;100.00
70758;BME280;59316;52.964;7.102;2022-09-27T04:57:54;99407.44;;;6.77;100.00
70758;BME280;59316;52.964;7.102;2022-09-27T05:02:57;99397.47;;;6.70;100.00
70758;BME280;59316;52.964;7.102;2022-09-27T05:08:11;99406.56;;;6.65;100.00
70758;BME280;59316;52.964;7.102;2022-09-27T05:13:47;99412.88;;;6.73;100.00
70758;BME280;59316;52.964;7.102;2022-09-27T05:18:50;99425.66;;;6.65;100.00
70758;BME280;59316;52.964;7.102;2022-09-27T05:24:11;99427.91;;;6.70;100.00
70758;BME280;59316;52.964;7.102;2022-09-27T05:29:13;99423.56;;;6.82;100.00
70758;BME280;59316;52.964;7.102;2022-09-27T05:34:20;99423.66;;;6.80;100.00
70758;BME280;59316;52.964;7.102;2022-09-27T05:39:31;99437.31;;;6.84;100.00
70758;BME280;59316;52.964;7.102;2022-09-27T05:44:34;99436.16;;;6.99;100.00
70758;BME280;59316;52.964;7.102;2022-09-27T05:49:38;99441.34;;;6.99;100.00
70758;BME280;59316;52.964;7.102;2022-09-27T05:54:43;99448.59;;;7.07;100.00
70758;BME280;59316;52.964;7.102;2022-09-27T05:59:47;99447.81;;;7.18;100.00
70758;BME280;59316;52.964;7.102;2022-09-27T06:04:55;99449.69;;;7.27;100.00
70758;BME280;59316;52.964;7.102;2022-09-27T06:10:18;99443.41;;;7.30;100.00
70758;BME280;59316;52.964;7.102;2022-09-27T06:15:21;99444.25;;;7.30;100.00
70758;BME280;59316;52.964;7.102;2022-09-27T06:20:23;99435.47;;;7.31;100.00
70758;BME280;59316;52.964;7.102;2022-09-27T06:25:26;99434.41;;;7.45;100.00
70758;BME280;59316;52.964;7.102;2022-09-27T06:30:48;99440.47;;;7.57;100.00
70758;BME280;59316;52.964;7.102;2022-09-27T06:36:01;99443.91;;;7.69;100.00
70758;BME280;59316;52.964;7.102;2022-09-27T06:41:05;99439.63;;;7.79;100.00
70758;BME280;59316;52.964;7.102;2022-09-27T06:46:33;99455.38;;;7.89;100.00
70758;BME280;59316;52.964;7.102;2022-09-27T06:51:59;99464.75;;;7.92;100.00
70758;BME280;59316;52.964;7.102;2022-09-27T06:57:02;99470.69;;;7.94;100.00
70758;BME280;59316;52.964;7.102;2022-09-27T07:02:05;99473.41;;;8.03;100.00
70758;BME280;59316;52.964;7.102;2022-09-27T07:07:36;99485.25;;;8.19;100.00
70758;BME280;59316;52.964;7.102;2022-09-27T07:12:38;99490.16;;;8.45;100.00
70758;BME280;59316;52.964;7.102;2022-09-27T07:17:41;99496.69;;;8.83;100.00
70758;BME280;59316;52.964;7.102;2022-09-27T07:22:43;99486.50;;;8.80;100.00
70758;BME280;59316;52.964;7.102;2022-09-27T07:27:47;99504.34;;;8.96;100.00
70758;BME280;59316;52.964;7.102;2022-09-27T07:32:49;99510.69;;;9.14;100.00
70758;BME280;59316;52.964;7.102;2022-09-27T07:37:57;99508.97;;;9.25;100.00
70758;BME280;59316;52.964;7.102;2022-09-27T07:43:00;99500.25;;;9.45;100.00
70758;BME280;59316;52.964;7.102;2022-09-27T07:48:04;99508.41;;;9.83;100.00
70758;BME280;59316;52.964;7.102;2022-09-27T07:53:25;99518.72;;;9.84;100.00
70758;BME280;59316;52.964;7.102;2022-09-27T07:58:37;99527.34;;;9.96;100.00
70758;BME280;59316;52.964;7.102;2022-09-27T08:03:41;99523.91;;;10.66;100.00
70758;BME280;59316;52.964;7.102;2022-09-27T08:08:44;99518.94;;;10.73;100.00
70758;BME280;59316;52.964;7.102;2022-09-27T08:13:46;99519.97;;;11.39;100.00
70758;BME280;59316;52.964;7.102;2022-09-27T08:18:48;99528.16;;;11.26;100.00
70758;BME280;59316;52.964;7.102;2022-09-27T08:24:09;99527.78;;;10.42;100.00
70758;BME280;59316;52.964;7.102;2022-09-27T08:29:28;99532.41;;;10.29;100.00
70758;BME280;59316;52.964;7.102;2022-09-27T08:34:30;99538.72;;;10.26;100.00
70758;BME280;59316;52.964;7.102;2022-09-27T08:39:32;99541.75;;;10.22;100.00
70758;BME280;59316;52.964;7.102;2022-09-27T08:44:56;99551.22;;;10.03;100.00
70758;BME280;59316;52.964;7.102;2022-09-27T08:50:31;99554.78;;;10.02;100.00
70758;BME280;59316;52.964;7.102;2022-09-27T08:55:48;99549.50;;;10.33;100.00
70758;BME280;59316;52.964;7.102;2022-09-27T09:00:58;99541.03;;;10.99;100.00
70758;BME280;59316;52.964;7.102;2022-09-27T09:06:18;99541.41;;;11.44;100.00
70758;BME280;59316;52.964;7.102;2022-09-27T09:11:27;99534.25;;;12.11;100.00
70758;BME280;59316;52.964;7.102;2022-09-27T09:16:57;99532.22;;;12.69;100.00
70758;BME280;59316;52.964;7.102;2022-09-27T09:27:38;99534.31;;;13.20;100.00
70758;BME280;59316;52.964;7.102;2022-09-27T09:37:59;99541.81;;;13.59;100.00
70758;BME280;59316;52.964;7.102;2022-09-27T09:43:26;99535.75;;;14.01;100.00
70758;BME280;59316;52.964;7.102;2022-09-27T09:48:41;99525.75;;;15.05;100.00
70758;BME280;59316;52.964;7.102;2022-09-27T09:53:58;99523.88;;;14.48;100.00
70758;BME280;59316;52.964;7.102;2022-09-27T09:59:18;99527.66;;;14.46;100.00
70758;BME280;59316;52.964;7.102;2022-09-27T10:04:27;99520.72;;;14.45;100.00
70758;BME280;59316;52.964;7.102;2022-09-27T10:09:32;99522.63;;;15.18;100.00
70758;BME280;59316;52.964;7.102;2022-09-27T10:14:54;99522.63;;;13.40;100.00
70758;BME280;59316;52.964;7.102;2022-09-27T10:20:01;99524.94;;;13.70;100.00
70758;BME280;59316;52.964;7.102;2022-09-27T10:25:06;99530.59;;;13.31;100.00
70758;BME280;59316;52.964;7.102;2022-09-27T10:30:28;99521.81;;;13.74;100.00
70758;BME280;59316;52.964;7.102;2022-09-27T10:35:33;99508.91;;;14.06;100.00
70758;BME280;59316;52.964;7.102;2022-09-27T10:40:37;99513.56;;;14.96;100.00
70758;BME280;59316;52.964;7.102;2022-09-27T10:45:42;99504.63;;;14.89;100.00
70758;BME280;59316;52.964;7.102;2022-09-27T10:51:02;99504.63;;;15.22;100.00
70758;BME280;59316;52.964;7.102;2022-09-27T10:56:21;99502.50;;;14.93;100.00
70758;BME280;59316;52.964;7.102;2022-09-27T11:01:26;99532.16;;;13.68;100.00
70758;BME280;59316;52.964;7.102;2022-09-27T11:06:50;99555.72;;;11.59;100.00
70758;BME280;59316;52.964;7.102;2022-09-27T11:12:14;99581.47;;;10.17;100.00
70758;BME280;59316;52.964;7.102;2022-09-27T11:45:34;99578.97;;;9.84;100.00
70758;BME280;59316;52.964;7.102;2022-09-27T11:56:26;99567.63;;;10.36;100.00
70758;BME280;59316;52.964;7.102;2022-09-27T12:12:33;99555.38;;;12.20;100.00
70758;BME280;59316;52.964;7.102;2022-09-27T12:17:43;99550.28;;;11.33;100.00
70758;BME280;59316;52.964;7.102;2022-09-27T12:23:22;99557.56;;;11.49;100.00
70758;BME280;59316;52.964;7.102;2022-09-27T12:28:50;99568.75;;;11.51;100.00
70758;BME280;59316;52.964;7.102;2022-09-27T12:39:13;99565.97;;;11.62;100.00
70758;BME280;59316;52.964;7.102;2022-09-27T12:44:20;99564.38;;;12.17;100.00
70758;BME280;59316;52.964;7.102;2022-09-27T13:17:05;99552.63;;;14.68;100.00
70758;BME280;59316;52.964;7.102;2022-09-27T13:22:09;99553.22;;;13.68;100.00
70758;BME280;59316;52.964;7.102;2022-09-27T13:27:43;99546.38;;;13.83;100.00
70758;BME280;59316;52.964;7.102;2022-09-27T13:38:24;99567.78;;;12.27;100.00
70758;BME280;59316;52.964;7.102;2022-09-27T13:43:39;99575.13;;;11.86;100.00
70758;BME280;59316;52.964;7.102;2022-09-27T13:49:18;99587.72;;;11.06;100.00
70758;BME280;59316;52.964;7.102;2022-09-27T13:54:56;99603.69;;;10.23;100.00
70758;BME280;59316;52.964;7.102;2022-09-27T14:00:04;99604.75;;;9.79;100.00
70758;BME280;59316;52.964;7.102;2022-09-27T14:05:30;99603.69;;;9.61;100.00
70758;BME280;59316;52.964;7.102;2022-09-27T14:10:33;99600.13;;;9.93;100.00
70758;BME280;59316;52.964;7.102;2022-09-27T14:15:37;99599.09;;;10.46;100.00
70758;BME280;59316;52.964;7.102;2022-09-27T14:20:45;99593.63;;;10.69;100.00
70758;BME280;59316;52.964;7.102;2022-09-27T14:26:24;99598.00;;;10.39;100.00
70758;BME280;59316;52.964;7.102;2022-09-27T14:31:27;99607.41;;;10.10;100.00
70758;BME280;59316;52.964;7.102;2022-09-27T14:36:56;99618.09;;;9.76;100.00
70758;BME280;59316;52.964;7.102;2022-09-27T14:42:05;99631.44;;;9.31;100.00
70758;BME280;59316;52.964;7.102;2022-09-27T14:47:19;99648.28;;;8.62;100.00
70758;BME280;59316;52.964;7.102;2022-09-27T14:52:28;99640.09;;;8.21;100.00
70758;BME280;59316;52.964;7.102;2022-09-27T14:57:31;99643.06;;;8.05;100.00
70758;BME280;59316;52.964;7.102;2022-09-27T15:02:33;99647.94;;;7.98;100.00
70758;BME280;59316;52.964;7.102;2022-09-27T15:07:36;99641.41;;;8.15;100.00
70758;BME280;59316;52.964;7.102;2022-09-27T15:12:39;99643.06;;;8.39;100.00
70758;BME280;59316;52.964;7.102;2022-09-27T15:17:43;99654.03;;;8.56;100.00
70758;BME280;59316;52.964;7.102;2022-09-27T15:22:45;99645.19;;;8.79;100.00
70758;BME280;59316;52.964;7.102;2022-09-27T15:27:53;99653.69;;;9.04;100.00
70758;BME280;59316;52.964;7.102;2022-09-27T15:32:55;99650.59;;;8.99;100.00
70758;BME280;59316;52.964;7.102;2022-09-27T15:48:39;99636.94;;;8.95;100.00
70758;BME280;59316;52.964;7.102;2022-09-27T15:53:41;99640.25;;;8.97;100.00
70758;BME280;59316;52.964;7.102;2022-09-27T15:58:44;99636.81;;;8.97;100.00
70758;BME280;59316;52.964;7.102;2022-09-27T16:03:46;99633.75;;;8.80;100.00
70758;BME280;59316;52.964;7.102;2022-09-27T16:08:48;99633.03;;;8.90;100.00
70758;BME280;59316;52.964;7.102;2022-09-27T16:13:51;99626.41;;;8.74;100.00
70758;BME280;59316;52.964;7.102;2022-09-27T16:18:53;99641.41;;;8.61;100.00
70758;BME280;59316;52.964;7.102;2022-09-27T16:23:55;99634.97;;;8.42;100.00
70758;BME280;59316;52.964;7.102;2022-09-27T16:28:57;99640.56;;;8.37;100.00
70758;BME280;59316;52.964;7.102;2022-09-27T16:33:59;99644.38;;;8.11;100.00
70758;BME280;59316;52.964;7.102;2022-09-27T16:39:02;99648.75;;;7.99;100.00
70758;BME280;59316;52.964;7.102;2022-09-27T16:44:08;99646.25;;;7.86;100.00
70758;BME280;59316;52.964;7.102;2022-09-27T16:49:11;99640.78;;;7.78;100.00
70758;BME280;59316;52.964;7.102;2022-09-27T16:54:13;99645.84;;;7.68;100.00
70758;BME280;59316;52.964;7.102;2022-09-27T16:59:15;99638.59;;;7.60;100.00
70758;BME280;59316;52.964;7.102;2022-09-27T17:04:18;99636.69;;;7.51;100.00
70758;BME280;59316;52.964;7.102;2022-09-27T17:09:20;99640.84;;;7.53;100.00
70758;BME280;59316;52.964;7.102;2022-09-27T17:14:22;99632.84;;;7.44;100.00
70758;BME280;59316;52.964;7.102;2022-09-27T17:19:24;99633.88;;;7.30;100.00
70758;BME280;59316;52.964;7.102;2022-09-27T17:24:27;99625.19;;;7.18;100.00
70758;BME280;59316;52.964;7.102;2022-09-27T17:29:29;99635.00;;;7.14;100.00
70758;BME280;59316;52.964;7.102;2022-09-27T17:34:31;99633.69;;;7.09;100.00
70758;BME280;59316;52.964;7.102;2022-09-27T17:39:33;99635.69;;;7.05;100.00
70758;BME280;59316;52.964;7.102;2022-09-27T17:44:35;99642.69;;;7.16;100.00
70758;BME280;59316;52.964;7.102;2022-09-27T17:49:37;99638.34;;;7.16;100.00
70758;BME280;59316;52.964;7.102;2022-09-27T17:54:40;99637.72;;;7.13;100.00
70758;BME280;59316;52.964;7.102;2022-09-27T17:59:42;99645.47;;;7.26;100.00
70758;BME280;59316;52.964;7.102;2022-09-27T18:04:44;99637.09;;;7.09;100.00
70758;BME280;59316;52.964;7.102;2022-09-27T18:09:46;99643.38;;;7.07;100.00
70758;BME280;59316;52.964;7.102;2022-09-27T18:14:48;99640.00;;;6.93;100.00
70758;BME280;59316;52.964;7.102;2022-09-27T18:19:50;99637.22;;;6.83;100.00
70758;BME280;59316;52.964;7.102;2022-09-27T18:24:53;99635.03;;;6.77;100.00
70758;BME280;59316;52.964;7.102;2022-09-27T18:29:55;99637.88;;;6.74;100.00
70758;BME280;59316;52.964;7.102;2022-09-27T18:34:57;99638.16;;;6.82;100.00
70758;BME280;59316;52.964;7.102;2022-09-27T18:39:59;99644.00;;;6.86;100.00
70758;BME280;59316;52.964;7.102;2022-09-27T18:45:01;99636.66;;;6.91;100.00
70758;BME280;59316;52.964;7.102;2022-09-27T18:50:04;99639.53;;;6.75;100.00
70758;BME280;59316;52.964;7.102;2022-09-27T18:55:06;99638.47;;;6.78;100.00
70758;BME280;59316;52.964;7.102;2022-09-27T19:00:09;99635.78;;;6.79;100.00
70758;BME280;59316;52.964;7.102;2022-09-27T19:05:11;99632.66;;;6.74;100.00
70758;BME280;59316;52.964;7.102;2022-09-27T19:10:13;99631.94;;;6.72;100.00
70758;BME280;59316;52.964;7.102;2022-09-27T19:15:16;99633.94;;;6.68;100.00
70758;BME280;59316;52.964;7.102;2022-09-27T19:20:18;99633.53;;;6.62;100.00
70758;BME280;59316;52.964;7.102;2022-09-27T19:25:20;99634.00;;;6.43;100.00
70758;BME280;59316;52.964;7.102;2022-09-27T19:30:22;99638.59;;;6.26;100.00
70758;BME280;59316;52.964;7.102;2022-09-27T19:35:25;99639.66;;;6.23;100.00
70758;BME280;59316;52.964;7.102;2022-09-27T19:40:27;99642.38;;;6.22;100.00
70758;BME280;59316;52.964;7.102;2022-09-27T19:45:29;99645.69;;;6.11;100.00
70758;BME280;59316;52.964;7.102;2022-09-27T19:50:31;99647.88;;;6.17;100.00
70758;BME280;59316;52.964;7.102;2022-09-27T19:55:33;99633.81;;;6.07;100.00
70758;BME280;59316;52.964;7.102;2022-09-27T20:00:36;99635.69;;;5.92;100.00
70758;BME280;59316;52.964;7.102;2022-09-27T20:05:38;99636.09;;;5.73;100.00
70758;BME280;59316;52.964;7.102;2022-09-27T20:10:40;99636.50;;;5.67;100.00
70758;BME280;59316;52.964;7.102;2022-09-27T20:15:42;99635.06;;;5.63;100.00
70758;BME280;59316;52.964;7.102;2022-09-27T20:20:44;99631.28;;;5.54;100.00
70758;BME280;59316;52.964;7.102;2022-09-27T20:25:46;99628.56;;;5.43;100.00
70758;BME280;59316;52.964;7.102;2022-09-27T20:31:02;99627.19;;;5.37;100.00
70758;BME280;59316;52.964;7.102;2022-09-27T20:36:06;99623.97;;;5.33;100.00
70758;BME280;59316;52.964;7.102;2022-09-27T20:41:09;99623.53;;;5.27;100.00
70758;BME280;59316;52.964;7.102;2022-09-27T20:46:12;99624.56;;;5.24;100.00
70758;BME280;59316;52.964;7.102;2022-09-27T20:51:16;99622.66;;;5.13;100.00
70758;BME280;59316;52.964;7.102;2022-09-27T20:56:23;99614.75;;;5.15;100.00
70758;BME280;59316;52.964;7.102;2022-09-27T21:01:26;99609.66;;;5.13;100.00
70758;BME280;59316;52.964;7.102;2022-09-27T21:06:30;99609.03;;;5.09;100.00
70758;BME280;59316;52.964;7.102;2022-09-27T21:11:33;99602.47;;;5.04;100.00
70758;BME280;59316;52.964;7.102;2022-09-27T21:16:35;99600.06;;;5.01;100.00
70758;BME280;59316;52.964;7.102;2022-09-27T21:21:37;99592.47;;;4.98;100.00
70758;BME280;59316;52.964;7.102;2022-09-27T21:26:39;99596.50;;;4.89;100.00
70758;BME280;59316;52.964;7.102;2022-09-27T21:31:42;99591.19;;;4.90;100.00
70758;BME280;59316;52.964;7.102;2022-09-27T21:36:48;99584.63;;;4.85;100.00
70758;BME280;59316;52.964;7.102;2022-09-27T21:41:50;99590.31;;;4.77;100.00
70758;BME280;59316;52.964;7.102;2022-09-27T21:46:53;99592.22;;;4.61;100.00
70758;BME280;59316;52.964;7.102;2022-09-27T21:51:55;99582.38;;;4.51;100.00
70758;BME280;59316;52.964;7.102;2022-09-27T21:56:57;99579.00;;;4.36;100.00
70758;BME280;59316;52.964;7.102;2022-09-27T22:01:59;99580.41;;;4.28;100.00
70758;BME280;59316;52.964;7.102;2022-09-27T22:07:01;99585.81;;;4.10;100.00
70758;BME280;59316;52.964;7.102;2022-09-27T22:12:03;99584.16;;;3.94;100.00
70758;BME280;59316;52.964;7.102;2022-09-27T22:17:06;99580.16;;;3.74;100.00
